Time;durP1;ratioP1;P1;durP2;ratioP2;P2;SDS_P1;SDS_P2;PMS_P1;PMS_P2;Temp;Humidity;BMP_temperature;BMP_pressure;BME280_temperature;BME280_humidity;BME280_pressure;Samples;Min_cycle;Max_cycle;Signal;HPM_P1;HPM_P2
2021/07/31 00:01:51;;;;;;;8.80;3.35;;;;;;;18.09;62.31;100487.09;5084945;28;20127;-60
2021/07/31 00:04:18;;;;;;;10.35;3.22;;;;;;;18.07;62.20;100489.44;5079675;28;20052;-59
2021/07/31 00:06:45;;;;;;;20.02;4.25;;;;;;;18.12;62.64;100495.75;5100396;28;20120;-59
2021/07/31 00:09:12;;;;;;;12.93;3.78;;;;;;;18.11;62.40;100494.06;5086735;28;20127;-59
2021/07/31 00:11:39;;;;;;;11.20;3.42;;;;;;;18.12;62.53;100489.25;5092031;28;20119;-60
2021/07/31 00:14:05;;;;;;;16.23;4.05;;;;;;;18.16;62.54;100499.56;5090855;28;20044;-58
2021/07/31 00:16:33;;;;;;;17.30;4.97;;;;;;;18.18;62.50;100485.09;5085743;28;20036;-57
2021/07/31 00:19:00;;;;;;;8.38;3.42;;;;;;;18.11;62.58;100470.63;5085654;28;20075;-60
2021/07/31 00:21:26;;;;;;;18.48;5.25;;;;;;;18.10;62.59;100472.63;5085665;28;20495;-59
2021/07/31 00:23:53;;;;;;;9.27;3.78;;;;;;;18.20;62.26;100483.59;5086451;28;20089;-59
2021/07/31 00:26:21;;;;;;;13.00;3.83;;;;;;;18.18;62.11;100483.09;5091948;28;20044;-59
2021/07/31 00:28:48;;;;;;;7.85;3.08;;;;;;;18.07;61.92;100470.47;5091417;28;20052;-58
2021/07/31 00:31:15;;;;;;;12.68;3.20;;;;;;;18.15;61.72;100480.09;5090319;28;20080;-59
2021/07/31 00:33:42;;;;;;;11.80;2.80;;;;;;;17.99;61.94;100452.38;5082639;28;20070;-58
2021/07/31 00:36:08;;;;;;;10.32;3.00;;;;;;;18.23;61.66;100477.28;5088502;28;20075;-58
2021/07/31 00:38:35;;;;;;;8.38;2.75;;;;;;;18.49;60.92;100484.88;5088847;28;20126;-59
2021/07/31 00:41:03;;;;;;;9.85;3.15;;;;;;;18.53;60.99;100479.38;5080773;28;20083;-58
2021/07/31 00:43:29;;;;;;;9.25;3.55;;;;;;;18.51;60.68;100482.56;5112677;27;20471;-58
2021/07/31 00:45:56;;;;;;;9.77;2.78;;;;;;;18.42;60.88;100478.91;5086710;28;20549;-60
2021/07/31 00:48:23;;;;;;;5.45;2.55;;;;;;;18.40;60.55;100475.59;5092662;28;20044;-60
2021/07/31 00:50:51;;;;;;;9.48;2.92;;;;;;;18.31;60.51;100472.78;5090478;28;20098;-59
2021/07/31 00:53:18;;;;;;;8.63;2.95;;;;;;;18.32;60.71;100479.25;5086593;28;20122;-63
2021/07/31 00:55:45;;;;;;;5.13;2.33;;;;;;;18.24;60.50;100478.94;5087117;28;20076;-63
2021/07/31 00:58:12;;;;;;;10.50;2.88;;;;;;;18.11;60.67;100457.31;5091192;28;20135;-62
2021/07/31 01:00:39;;;;;;;10.63;3.40;;;;;;;18.15;60.32;100475.31;5090143;28;20493;-62
2021/07/31 01:03:06;;;;;;;7.88;3.33;;;;;;;18.15;60.72;100475.31;5090847;28;20079;-59
2021/07/31 01:05:34;;;;;;;8.07;3.28;;;;;;;18.07;60.43;100456.34;5092056;28;20052;-59
2021/07/31 01:08:02;;;;;;;7.57;3.22;;;;;;;18.03;60.09;100449.69;5084506;28;20036;-60
2021/07/31 01:10:31;;;;;;;9.27;3.00;;;;;;;17.99;60.70;100454.38;5085955;28;20415;-60
2021/07/31 01:12:59;;;;;;;11.57;4.00;;;;;;;18.10;60.49;100469.81;5097739;28;20492;-60
2021/07/31 01:15:26;;;;;;;7.28;3.55;;;;;;;18.08;60.25;100463.66;5089221;28;20093;-59
2021/07/31 01:17:53;;;;;;;7.00;2.72;;;;;;;18.05;60.67;100474.78;5086863;28;20068;-61
2021/07/31 01:20:20;;;;;;;7.97;3.33;;;;;;;18.02;60.75;100470.66;5087485;28;20455;-60
2021/07/31 01:22:47;;;;;;;16.33;4.80;;;;;;;18.08;60.32;100466.47;5092729;28;20463;-61
2021/07/31 01:25:14;;;;;;;21.98;8.98;;;;;;;17.92;60.43;100437.91;5085861;28;20134;-61
2021/07/31 01:27:42;;;;;;;27.15;8.90;;;;;;;18.07;60.88;100452.69;5076798;28;20048;-61
2021/07/31 01:30:09;;;;;;;21.73;8.15;;;;;;;17.97;60.70;100448.19;5089642;28;20461;-62
2021/07/31 01:32:36;;;;;;;22.95;9.63;;;;;;;17.98;61.02;100453.53;5085848;28;20072;-63
2021/07/31 01:35:04;;;;;;;23.85;8.32;;;;;;;17.99;60.79;100454.38;5085327;28;20127;-64
2021/07/31 01:37:31;;;;;;;18.95;6.03;;;;;;;17.92;61.00;100459.69;5086687;28;20126;-61
2021/07/31 01:39:58;;;;;;;15.95;5.40;;;;;;;17.71;61.23;100437.72;5093532;28;20072;-62
2021/07/31 01:42:26;;;;;;;8.93;4.22;;;;;;;17.87;61.08;100454.19;5088021;28;20131;-64
2021/07/31 01:44:52;;;;;;;6.18;3.78;;;;;;;17.68;60.91;100435.56;5076166;28;20132;-63
2021/07/31 01:47:19;;;;;;;12.05;4.13;;;;;;;17.81;61.26;100450.72;5087969;28;20045;-58
2021/07/31 01:49:46;;;;;;;6.80;3.22;;;;;;;17.80;61.17;100459.50;5084874;28;20215;-59
2021/07/31 01:52:13;;;;;;;13.15;4.72;;;;;;;17.82;61.00;100460.00;5091281;28;20559;-59
2021/07/31 01:54:40;;;;;;;6.13;2.97;;;;;;;17.23;61.23;100370.91;5080041;28;20546;-60
2021/07/31 01:57:06;;;;;;;9.32;3.35;;;;;;;17.65;61.54;100447.50;5090832;28;20491;-60
2021/07/31 01:59:33;;;;;;;8.50;3.63;;;;;;;17.67;61.20;100445.16;5087081;28;20135;-60
2021/07/31 02:02:00;;;;;;;15.88;3.45;;;;;;;17.71;61.44;100449.00;5087469;28;20067;-61
2021/07/31 02:04:27;;;;;;;12.85;3.72;;;;;;;17.71;61.12;100454.66;5073966;28;20105;-60
2021/07/31 02:06:54;;;;;;;11.25;3.50;;;;;;;17.75;61.29;100461.31;5088545;28;20134;-61
2021/07/31 02:09:20;;;;;;;11.55;4.10;;;;;;;17.63;61.13;100430.03;5083288;28;21870;-61
2021/07/31 02:11:47;;;;;;;12.45;4.07;;;;;;;17.74;61.45;100458.78;5088797;28;20120;-61
2021/07/31 02:14:15;;;;;;;11.00;3.50;;;;;;;17.66;61.67;100445.50;5087557;28;20555;-61
2021/07/31 02:16:42;;;;;;;29.70;4.78;;;;;;;17.65;61.17;100450.34;5085358;28;20093;-61
2021/07/31 02:19:08;;;;;;;7.07;3.67;;;;;;;17.59;61.62;100434.69;5084804;28;20131;-61
2021/07/31 02:21:35;;;;;;;8.70;3.60;;;;;;;17.65;61.63;100449.50;5087711;28;20131;-64
2021/07/31 02:24:02;;;;;;;12.00;3.25;;;;;;;17.62;61.46;100451.00;5092225;28;20143;-65
2021/07/31 02:26:29;;;;;;;11.52;3.97;;;;;;;17.50;61.45;100454.47;5090565;28;20210;-63
2021/07/31 02:28:56;;;;;;;8.85;3.47;;;;;;;17.54;61.58;100457.47;5080661;28;20043;-62
2021/07/31 02:31:23;;;;;;;12.55;3.78;;;;;;;17.50;61.65;100450.78;5088308;28;20067;-63
2021/07/31 02:33:50;;;;;;;9.43;3.25;;;;;;;17.49;61.71;100458.44;5090452;28;20078;-62
2021/07/31 02:36:17;;;;;;;11.88;3.28;;;;;;;17.49;61.66;100455.63;5086899;28;20131;-62
2021/07/31 02:38:44;;;;;;;9.90;4.03;;;;;;;17.45;61.83;100450.97;5086358;28;20071;-64
2021/07/31 02:41:10;;;;;;;11.07;4.68;;;;;;;17.60;61.90;100453.28;5087628;28;20135;-63
2021/07/31 02:43:37;;;;;;;9.88;3.40;;;;;;;17.29;61.23;100392.16;5081346;28;20185;-63
2021/07/31 02:46:06;;;;;;;12.27;4.35;;;;;;;17.71;61.68;100449.00;5080473;28;20131;-62
2021/07/31 02:48:34;;;;;;;10.35;3.30;;;;;;;17.81;61.70;100452.69;5086441;28;20054;-64
2021/07/31 02:51:03;;;;;;;7.90;4.03;;;;;;;17.89;61.23;100455.53;5090056;28;20491;-63
2021/07/31 02:53:31;;;;;;;8.45;3.10;;;;;;;17.90;61.11;100462.00;5082797;28;20036;-62
2021/07/31 02:55:59;;;;;;;9.18;3.47;;;;;;;17.92;61.24;100468.16;5082772;28;20084;-62
2021/07/31 02:58:26;;;;;;;7.57;2.70;;;;;;;17.88;60.94;100453.88;5088475;28;20067;-62
2021/07/31 03:00:53;;;;;;;15.18;3.38;;;;;;;17.97;61.15;100467.97;5088202;28;20036;-58
2021/07/31 03:03:20;;;;;;;5.80;2.95;;;;;;;18.08;60.80;100468.47;5078249;28;21068;-58
2021/07/31 03:05:57;;;;;;;9.60;3.67;;;;;;;18.05;60.62;100472.81;5085628;28;20044;-58
2021/07/31 03:08:27;;;;;;;7.75;3.10;;;;;;;18.14;60.41;100462.31;5089185;28;20239;-58
2021/07/31 03:10:58;;;;;;;6.38;2.72;;;;;;;18.26;60.51;100469.31;5083344;28;20131;-59
2021/07/31 03:13:25;;;;;;;5.15;3.15;;;;;;;18.29;60.27;100471.44;5091215;28;20048;-59
2021/07/31 03:15:53;;;;;;;9.68;3.08;;;;;;;18.23;60.07;100468.81;5085760;28;20048;-59
2021/07/31 03:18:24;;;;;;;7.70;2.90;;;;;;;18.28;59.87;100473.44;5086873;28;20048;-58
2021/07/31 03:20:52;;;;;;;5.15;2.72;;;;;;;18.24;59.73;100459.16;5079007;28;20466;-58
2021/07/31 03:23:22;;;;;;;6.60;2.65;;;;;;;18.29;59.83;100457.31;5080677;28;20130;-58
2021/07/31 03:25:49;;;;;;;7.75;3.33;;;;;;;18.46;59.38;100463.78;5085958;28;20117;-58
2021/07/31 03:28:15;;;;;;;9.90;3.03;;;;;;;18.62;59.35;100480.19;5080858;28;20139;-56
2021/07/31 03:30:45;;;;;;;5.38;2.38;;;;;;;18.67;58.73;100463.91;5077130;28;20082;-60
2021/07/31 03:33:12;;;;;;;5.33;2.57;;;;;;;18.84;58.33;100468.69;5072379;28;20044;-61
2021/07/31 03:35:41;;;;;;;11.13;2.60;;;;;;;18.79;58.45;100468.03;5085633;28;20083;-60
2021/07/31 03:38:09;;;;;;;9.65;2.92;;;;;;;18.79;58.05;100476.53;5085056;28;20127;-60
2021/07/31 03:40:36;;;;;;;6.82;2.60;;;;;;;18.70;58.28;100480.19;5093198;28;20499;-60
2021/07/31 03:43:04;;;;;;;6.18;2.70;;;;;;;18.53;58.04;100462.41;5086213;28;20076;-60
2021/07/31 03:45:31;;;;;;;5.18;2.67;;;;;;;18.59;58.09;100484.53;5089804;28;20567;-62
2021/07/31 03:47:58;;;;;;;5.35;2.22;;;;;;;18.65;58.25;100496.50;5093441;28;20127;-62
2021/07/31 03:50:24;;;;;;;10.43;2.78;;;;;;;18.65;57.77;100483.19;5089289;28;20121;-62
2021/07/31 03:52:51;;;;;;;6.28;3.00;;;;;;;18.65;57.85;100482.38;5089495;28;20075;-62
2021/07/31 03:55:18;;;;;;;10.45;2.80;;;;;;;18.66;57.48;100484.00;5088090;28;20134;-62
2021/07/31 03:57:45;;;;;;;9.68;2.78;;;;;;;18.64;57.73;100490.03;5092886;28;20135;-62
2021/07/31 04:00:12;;;;;;;4.60;2.72;;;;;;;18.62;57.56;100477.38;5086162;28;20127;-62
2021/07/31 04:02:39;;;;;;;10.30;2.42;;;;;;;18.76;57.16;100489.34;5090805;28;20131;-63
2021/07/31 04:05:06;;;;;;;6.10;2.28;;;;;;;18.74;57.24;100485.22;5088812;28;20048;-63
2021/07/31 04:07:33;;;;;;;11.60;2.15;;;;;;;18.60;57.41;100486.22;5087479;28;20140;-62
2021/07/31 04:10:00;;;;;;;6.45;2.28;;;;;;;18.64;57.09;100497.69;5087387;28;20051;-63
2021/07/31 04:12:27;;;;;;;7.68;2.60;;;;;;;18.29;57.02;100429.03;5084247;28;20123;-65
2021/07/31 04:14:54;;;;;;;5.45;2.67;;;;;;;18.61;56.84;100493.50;5076893;28;20135;-65
2021/07/31 04:17:20;;;;;;;5.72;2.67;;;;;;;18.59;57.15;100501.50;5086023;28;20043;-66
2021/07/31 04:19:47;;;;;;;9.02;2.42;;;;;;;18.52;57.01;100501.19;5084444;28;20159;-64
2021/07/31 04:22:14;;;;;;;4.63;2.15;;;;;;;18.40;57.26;100492.56;5084923;28;20475;-64
2021/07/31 04:24:41;;;;;;;3.67;1.92;;;;;;;18.45;57.03;100500.88;5088282;28;20040;-64
2021/07/31 04:27:08;;;;;;;4.13;2.10;;;;;;;18.49;57.00;100496.19;5091097;28;20072;-64
2021/07/31 04:29:35;;;;;;;5.68;2.60;;;;;;;18.40;56.79;100493.41;5091140;28;20486;-64
2021/07/31 04:32:02;;;;;;;5.03;2.33;;;;;;;18.46;56.85;100491.19;5086565;28;20052;-64
2021/07/31 04:34:29;;;;;;;5.65;2.40;;;;;;;18.49;56.73;100510.31;5092794;28;20169;-64
2021/07/31 04:36:56;;;;;;;12.88;2.88;;;;;;;18.48;56.70;100511.50;5091104;28;20040;-63
2021/07/31 04:39:23;;;;;;;6.18;1.85;;;;;;;18.33;56.98;100495.06;5086998;28;20068;-65
2021/07/31 04:41:50;;;;;;;6.88;2.03;;;;;;;18.17;56.47;100472.97;5082810;28;20127;-63
2021/07/31 04:44:17;;;;;;;8.10;2.50;;;;;;;18.22;56.83;100480.44;5093108;28;20052;-59
2021/07/31 04:46:44;;;;;;;5.57;2.40;;;;;;;18.36;56.88;100508.50;5085596;28;20040;-60
2021/07/31 04:49:11;;;;;;;5.93;2.20;;;;;;;18.21;56.63;100496.56;5090796;28;20476;-62
2021/07/31 04:51:38;;;;;;;7.40;3.10;;;;;;;18.16;56.53;100498.75;5085313;28;20131;-62
2021/07/31 04:54:05;;;;;;;6.55;2.08;;;;;;;18.19;56.82;100510.22;5097653;28;20113;-63
2021/07/31 04:56:31;;;;;;;6.68;2.78;;;;;;;18.18;56.64;100513.34;5078389;28;20072;-63
2021/07/31 04:58:58;;;;;;;5.13;2.47;;;;;;;18.13;56.92;100520.00;5090436;28;20067;-65
2021/07/31 05:01:25;;;;;;;5.95;2.55;;;;;;;17.96;56.71;100505.88;5090334;28;20049;-62
2021/07/31 05:03:52;;;;;;;4.70;2.33;;;;;;;18.02;56.56;100526.31;5086845;28;20052;-61
2021/07/31 05:06:21;;;;;;;5.43;2.10;;;;;;;17.96;57.00;100525.66;5086962;28;20040;-65
2021/07/31 05:08:49;;;;;;;4.55;1.83;;;;;;;17.88;57.15;100516.03;5086939;28;20135;-59
2021/07/31 05:11:18;;;;;;;4.88;2.35;;;;;;;17.90;56.76;100521.31;5086827;28;20044;-58
2021/07/31 05:13:45;;;;;;;6.35;1.98;;;;;;;17.86;57.07;100531.63;5086668;28;20126;-59
2021/07/31 05:16:17;;;;;;;6.82;2.17;;;;;;;17.75;56.97;100529.09;5088758;28;20118;-58
2021/07/31 05:18:45;;;;;;;8.70;2.30;;;;;;;17.74;56.90;100544.38;5088768;28;20055;-56
2021/07/31 05:21:11;;;;;;;5.65;2.42;;;;;;;17.68;57.26;100533.56;5079487;28;20075;-59
2021/07/31 05:23:39;;;;;;;7.25;2.55;;;;;;;17.71;56.81;100549.84;5087004;28;20040;-58
2021/07/31 05:26:10;;;;;;;8.07;2.40;;;;;;;17.68;57.12;100551.34;5089485;28;20492;-61
2021/07/31 05:28:37;;;;;;;4.10;1.63;;;;;;;17.61;57.26;100528.41;5093676;28;20473;-67
2021/07/31 05:31:04;;;;;;;9.35;2.15;;;;;;;17.65;56.78;100542.69;5095666;28;20044;-59
2021/07/31 05:33:31;;;;;;;5.35;1.98;;;;;;;17.62;57.19;100541.34;5077883;28;20051;-59
2021/07/31 05:35:57;;;;;;;4.63;1.77;;;;;;;17.67;56.84;100554.47;5088913;28;20531;-61
2021/07/31 05:38:24;;;;;;;6.28;2.30;;;;;;;17.47;57.04;100537.00;5090260;28;20064;-60
2021/07/31 05:40:51;;;;;;;8.50;2.50;;;;;;;17.56;57.47;100556.78;5090499;28;20073;-60
2021/07/31 05:43:18;;;;;;;3.58;2.25;;;;;;;17.57;57.01;100560.44;5084640;28;20127;-65
2021/07/31 05:45:47;;;;;;;4.90;2.10;;;;;;;17.41;57.17;100537.47;5083014;28;20049;-65
2021/07/31 05:48:14;;;;;;;5.32;1.83;;;;;;;17.55;57.29;100566.41;5081962;28;20071;-62
2021/07/31 05:50:41;;;;;;;4.53;1.88;;;;;;;17.56;57.32;100565.25;5089126;28;20076;-65
2021/07/31 05:53:08;;;;;;;6.60;1.95;;;;;;;17.63;56.85;100574.06;5086195;28;20044;-63
2021/07/31 05:55:36;;;;;;;7.78;2.10;;;;;;;17.55;56.83;100562.75;5085700;28;20550;-66
2021/07/31 05:58:03;;;;;;;7.82;2.85;;;;;;;17.65;57.12;100559.63;5095952;28;20147;-64
2021/07/31 06:00:30;;;;;;;4.38;1.65;;;;;;;17.75;56.97;100579.94;5087905;28;20495;-64
2021/07/31 06:02:59;;;;;;;4.15;2.58;;;;;;;17.76;56.41;100575.97;5091149;28;20041;-64
2021/07/31 06:05:26;;;;;;;5.22;1.80;;;;;;;17.74;56.27;100574.59;5082510;28;20154;-64
2021/07/31 06:07:53;;;;;;;3.30;1.90;;;;;;;17.76;56.75;100587.25;5086650;28;20074;-61
2021/07/31 06:10:20;;;;;;;4.25;2.67;;;;;;;18.13;57.49;100585.00;5087517;28;20454;-61
2021/07/31 06:12:47;;;;;;;8.07;2.53;;;;;;;18.33;56.71;100592.03;5089801;28;20518;-62
2021/07/31 06:15:14;;;;;;;6.68;2.38;;;;;;;18.61;56.46;100594.50;5084622;28;20127;-60
2021/07/31 06:17:41;;;;;;;8.57;2.45;;;;;;;18.92;55.77;100600.00;5083769;28;20123;-61
2021/07/31 06:20:08;;;;;;;3.90;1.90;;;;;;;18.98;55.30;100595.00;5084247;28;20135;-61
2021/07/31 06:22:35;;;;;;;12.35;2.28;;;;;;;19.04;54.76;100594.47;5086394;28;20175;-60
2021/07/31 06:25:03;;;;;;;4.82;2.40;;;;;;;19.30;54.76;100599.22;5086338;28;20044;-62
2021/07/31 06:27:29;;;;;;;3.67;1.70;;;;;;;19.44;54.34;100605.50;5078283;28;20397;-62
2021/07/31 06:29:57;;;;;;;5.40;2.80;;;;;;;19.50;54.16;100606.97;5087832;28;20047;-63
2021/07/31 06:32:24;;;;;;;4.32;1.75;;;;;;;19.66;54.03;100604.44;5081485;28;20075;-61
2021/07/31 06:34:51;;;;;;;3.35;2.45;;;;;;;20.00;53.42;100609.09;5078646;28;20064;-62
2021/07/31 06:37:19;;;;;;;6.55;2.13;;;;;;;20.13;53.00;100627.00;5086069;28;20044;-63
2021/07/31 06:39:46;;;;;;;4.03;1.60;;;;;;;19.89;53.04;100604.97;5079943;28;20076;-62
2021/07/31 06:42:13;;;;;;;3.10;1.63;;;;;;;19.86;53.02;100628.31;5088670;28;20123;-62
2021/07/31 06:44:40;;;;;;;3.42;1.90;;;;;;;20.04;53.11;100629.91;5087188;28;20462;-62
2021/07/31 06:47:06;;;;;;;4.80;2.38;;;;;;;20.23;52.56;100625.78;5080672;28;20131;-62
2021/07/31 06:49:33;;;;;;;5.18;1.92;;;;;;;20.36;52.54;100625.50;5086183;28;20777;-62
2021/07/31 06:52:00;;;;;;;7.13;2.30;;;;;;;20.57;52.21;100619.88;5080849;28;20101;-61
2021/07/31 06:54:27;;;;;;;5.18;2.15;;;;;;;20.80;51.57;100602.47;5083183;28;20064;-61
2021/07/31 06:56:54;;;;;;;2.92;1.55;;;;;;;21.02;51.32;100636.13;5086378;28;20874;-62
2021/07/31 06:59:20;;;;;;;5.22;1.92;;;;;;;21.05;51.08;100609.88;5086005;28;20131;-61
2021/07/31 07:01:47;;;;;;;4.13;1.88;;;;;;;21.45;50.62;100637.72;5079329;28;20127;-62
2021/07/31 07:04:14;;;;;;;4.55;1.77;;;;;;;21.64;50.09;100622.97;5076909;28;20110;-62
2021/07/31 07:06:41;;;;;;;5.10;2.00;;;;;;;21.87;49.96;100642.38;5079188;28;20579;-63
2021/07/31 07:09:09;;;;;;;4.30;1.95;;;;;;;22.01;49.54;100638.00;5079283;28;20135;-63
2021/07/31 07:11:36;;;;;;;4.60;1.70;;;;;;;22.22;49.34;100648.44;5093636;28;20147;-64
2021/07/31 07:14:03;;;;;;;5.78;2.22;;;;;;;22.41;48.84;100656.38;5074838;28;20142;-64
2021/07/31 07:16:30;;;;;;;6.13;2.10;;;;;;;22.55;48.22;100653.13;5079167;28;20040;-63
2021/07/31 07:18:57;;;;;;;4.03;1.42;;;;;;;22.63;48.00;100653.00;5081727;28;20126;-64
2021/07/31 07:21:23;;;;;;;5.88;1.92;;;;;;;22.64;48.22;100659.53;5084720;28;20131;-63
2021/07/31 07:23:50;;;;;;;3.40;1.75;;;;;;;22.61;47.98;100651.69;5086616;28;20123;-63
2021/07/31 07:26:17;;;;;;;3.53;1.77;;;;;;;22.78;47.42;100659.94;5079793;28;20068;-64
2021/07/31 07:28:44;;;;;;;3.55;1.60;;;;;;;22.69;47.38;100662.94;5085205;28;20076;-65
2021/07/31 07:31:13;;;;;;;4.65;2.38;;;;;;;22.79;47.46;100666.47;5083042;28;20463;-63
2021/07/31 07:33:40;;;;;;;4.70;2.03;;;;;;;22.90;47.13;100650.53;5090744;28;20086;-63
2021/07/31 07:36:16;;;;;;;4.78;1.60;;;;;;;22.89;46.89;100644.00;5085976;28;20550;-63
2021/07/31 07:38:44;;;;;;;5.45;1.85;;;;;;;23.09;46.49;100661.28;5073577;28;20049;-63
2021/07/31 07:41:13;;;;;;;5.60;1.80;;;;;;;22.87;46.80;100663.50;5082623;28;20131;-62
2021/07/31 07:43:40;;;;;;;4.47;1.50;;;;;;;23.01;46.67;100682.19;5087728;28;20071;-61
2021/07/31 07:46:13;;;;;;;4.22;1.90;;;;;;;22.82;46.33;100643.78;5081936;28;20163;-61
2021/07/31 07:48:41;;;;;;;4.07;1.70;;;;;;;22.93;46.77;100684.84;5080732;28;20056;-61
2021/07/31 07:51:08;;;;;;;4.00;1.58;;;;;;;23.16;46.52;100689.97;5090804;28;20048;-61
2021/07/31 07:53:35;;;;;;;5.80;1.80;;;;;;;23.22;46.33;100688.53;5081451;28;20572;-62
2021/07/31 07:56:02;;;;;;;4.70;1.63;;;;;;;23.31;46.20;100680.63;5087970;28;20131;-61
2021/07/31 07:58:29;;;;;;;4.68;1.65;;;;;;;23.51;45.63;100697.88;5080413;28;20444;-61
2021/07/31 08:00:56;;;;;;;5.20;1.65;;;;;;;23.36;45.35;100680.38;5080865;28;20068;-62
2021/07/31 08:03:23;;;;;;;3.15;1.65;;;;;;;23.47;45.42;100696.94;5076353;28;20066;-62
2021/07/31 08:05:50;;;;;;;2.22;1.73;;;;;;;24.04;45.18;100687.09;5084846;28;20044;-63
2021/07/31 08:08:17;;;;;;;2.33;1.50;;;;;;;24.83;44.68;100692.66;5083850;28;20537;-63
2021/07/31 08:10:44;;;;;;;7.60;1.83;;;;;;;25.59;43.63;100692.19;5080604;28;20140;-63
2021/07/31 08:13:11;;;;;;;7.60;2.35;;;;;;;26.03;43.43;100688.94;5081465;28;20123;-65
2021/07/31 08:15:37;;;;;;;5.85;2.03;;;;;;;26.41;42.50;100705.09;5071899;28;20544;-66
2021/07/31 08:18:04;;;;;;;2.42;1.50;;;;;;;26.63;41.83;100694.81;5075119;28;20131;-66
2021/07/31 08:20:31;;;;;;;6.43;1.77;;;;;;;26.73;41.37;100673.28;5091024;28;20479;-66
2021/07/31 08:22:58;;;;;;;4.38;1.60;;;;;;;27.21;40.53;100714.47;5092507;28;20127;-66
2021/07/31 08:25:25;;;;;;;5.03;1.42;;;;;;;27.29;40.52;100669.53;5080738;28;20128;-65
2021/07/31 08:27:52;;;;;;;4.07;2.05;;;;;;;27.60;39.93;100697.75;5090805;28;20516;-65
2021/07/31 08:30:18;;;;;;;2.67;1.83;;;;;;;27.89;39.19;100709.53;5081674;28;20131;-65
2021/07/31 08:32:45;;;;;;;3.75;1.90;;;;;;;28.09;38.72;100702.34;5081051;28;20101;-66
2021/07/31 08:35:13;;;;;;;4.07;1.50;;;;;;;28.19;38.42;100700.78;5094023;28;20133;-65
2021/07/31 08:37:40;;;;;;;8.45;2.25;;;;;;;28.32;38.32;100704.16;5086154;28;20041;-64
2021/07/31 08:40:09;;;;;;;5.50;1.90;;;;;;;28.67;37.60;100705.69;5094354;28;20090;-64
2021/07/31 08:42:38;;;;;;;3.58;1.58;;;;;;;28.92;37.61;100700.06;5091740;28;20480;-64
2021/07/31 08:45:06;;;;;;;3.80;2.08;;;;;;;28.95;36.75;100688.56;5084740;28;20082;-66
2021/07/31 08:47:33;;;;;;;8.00;2.60;;;;;;;29.13;37.23;100700.22;5086449;28;20539;-65
2021/07/31 08:50:02;;;;;;;2.92;1.67;;;;;;;29.49;36.45;100680.19;5080354;28;20060;-65
2021/07/31 08:52:32;;;;;;;3.45;2.25;;;;;;;29.53;35.85;100701.97;5087893;28;20105;-65
2021/07/31 08:54:59;;;;;;;4.20;2.33;;;;;;;29.59;35.62;100679.41;5093159;28;20094;-65
2021/07/31 08:57:26;;;;;;;7.15;2.28;;;;;;;30.03;35.39;100688.94;5088423;28;20079;-65
2021/07/31 08:59:53;;;;;;;2.95;1.70;;;;;;;30.41;34.30;100685.25;5092222;28;20119;-66
2021/07/31 09:02:21;;;;;;;7.07;1.85;;;;;;;30.64;34.48;100670.38;5088393;28;20128;-65
2021/07/31 09:04:51;;;;;;;4.13;1.67;;;;;;;30.40;33.84;100680.72;5092101;28;20449;-65
2021/07/31 09:07:18;;;;;;;3.58;1.60;;;;;;;29.86;35.06;100687.69;5085517;28;20503;-65
2021/07/31 09:09:46;;;;;;;3.70;1.60;;;;;;;29.09;34.90;100684.97;5075588;28;20518;-65
2021/07/31 09:12:13;;;;;;;2.95;1.67;;;;;;;28.60;35.44;100689.22;5085953;28;20071;-65
2021/07/31 09:14:45;;;;;;;6.28;2.05;;;;;;;28.95;35.32;100690.63;5090973;28;20123;-64
2021/07/31 09:17:24;;;;;;;3.15;1.88;;;;;;;28.78;35.41;100649.91;5085244;28;20090;-65
2021/07/31 09:19:52;;;;;;;4.35;1.60;;;;;;;29.06;35.23;100685.81;5093349;28;20079;-64
2021/07/31 09:22:19;;;;;;;5.75;2.05;;;;;;;28.93;34.73;100691.06;5091725;28;20124;-64
2021/07/31 09:25:09;;;;;;;3.30;1.70;;;;;;;28.80;34.77;100678.25;5089538;28;20135;-65
2021/07/31 09:27:37;;;;;;;6.13;1.75;;;;;;;29.12;33.95;100677.59;5099761;28;20127;-64
2021/07/31 09:30:05;;;;;;;5.85;1.85;;;;;;;29.59;33.53;100678.56;5090550;28;20135;-65
2021/07/31 09:32:37;;;;;;;2.58;1.73;;;;;;;30.01;33.16;100682.75;5092180;28;20123;-65
2021/07/31 09:35:21;;;;;;;2.97;1.77;;;;;;;30.35;32.54;100680.31;5091112;28;20063;-65
2021/07/31 09:37:49;;;;;;;3.03;1.45;;;;;;;30.60;31.77;100645.69;5092571;28;20127;-65
2021/07/31 09:40:30;;;;;;;2.20;1.30;;;;;;;31.07;31.80;100663.69;5090246;28;20131;-65
2021/07/31 09:43:12;;;;;;;3.30;1.52;;;;;;;31.32;31.57;100675.97;5091315;28;20048;-65
2021/07/31 09:45:39;;;;;;;9.27;1.42;;;;;;;31.49;31.14;100677.09;5092174;28;20463;-64
2021/07/31 09:48:08;;;;;;;3.22;1.40;;;;;;;31.41;30.62;100663.13;5092979;28;20226;-64
2021/07/31 09:50:40;;;;;;;7.38;2.40;;;;;;;31.39;31.40;100664.38;5084368;28;20075;-65
2021/07/31 09:53:08;;;;;;;6.55;1.75;;;;;;;31.34;30.75;100661.91;5083759;28;21521;-64
2021/07/31 09:55:40;;;;;;;3.92;1.20;;;;;;;31.17;31.06;100646.31;5088265;28;20132;-64
2021/07/31 09:58:09;;;;;;;4.07;1.45;;;;;;;30.94;30.61;100634.50;5085657;28;20058;-64
2021/07/31 10:00:40;;;;;;;3.88;1.40;;;;;;;31.06;29.90;100667.81;5087949;28;20044;-64
2021/07/31 10:03:10;;;;;;;3.03;1.70;;;;;;;31.10;29.40;100668.59;5098951;28;20135;-64
2021/07/31 10:05:42;;;;;;;3.75;1.20;;;;;;;31.19;29.51;100642.22;5092040;28;20122;-64
2021/07/31 10:08:29;;;;;;;4.07;1.85;;;;;;;31.60;29.35;100656.84;5085826;28;20476;-64
2021/07/31 10:10:55;;;;;;;5.25;1.70;;;;;;;32.10;28.88;100679.56;5091152;28;20125;-64
2021/07/31 10:13:23;;;;;;;3.42;1.42;;;;;;;32.35;29.43;100687.22;5092240;28;20044;-66
2021/07/31 10:15:51;;;;;;;3.20;1.77;;;;;;;32.57;29.21;100688.66;5078388;28;20546;-64
2021/07/31 10:18:19;;;;;;;4.10;1.58;;;;;;;32.76;29.23;100681.44;5088119;28;20079;-63
2021/07/31 10:20:46;;;;;;;5.67;2.00;;;;;;;32.73;29.54;100667.84;5092510;28;20142;-63
2021/07/31 10:23:33;;;;;;;6.47;2.00;;;;;;;32.82;29.36;100678.88;5091801;28;20082;-62
2021/07/31 10:26:08;;;;;;;5.95;2.40;;;;;;;33.02;29.31;100674.13;5086416;28;20036;-63
2021/07/31 10:28:35;;;;;;;8.77;2.22;;;;;;;33.03;29.51;100690.25;5079266;28;20128;-63
2021/07/31 10:31:28;;;;;;;6.20;1.90;;;;;;;32.87;29.48;100661.91;5088835;28;20147;-64
2021/07/31 10:33:55;;;;;;;4.30;2.10;;;;;;;32.21;30.44;100674.53;5080566;28;20054;-63
2021/07/31 10:36:32;;;;;;;3.90;1.90;;;;;;;31.97;30.56;100672.69;5086888;28;20135;-64
2021/07/31 10:39:01;;;;;;;4.82;2.17;;;;;;;32.09;30.63;100666.38;5081275;28;20075;-64
2021/07/31 10:41:46;;;;;;;;;;;;;;;31.85;31.94;100663.22;5093316;28;20054;-62
2021/07/31 10:44:13;;;;;;;5.25;1.77;;;;;;;31.95;30.95;100675.97;5084546;28;19970;-62
2021/07/31 10:46:40;;;;;;;3.70;1.70;;;;;;;31.47;31.63;100675.88;5087169;28;20071;-63
2021/07/31 10:49:33;;;;;;;5.90;2.42;;;;;;;31.13;31.48;100667.78;5086482;28;20051;-63
2021/07/31 10:52:00;;;;;;;4.80;2.33;;;;;;;30.85;31.72;100686.84;5092004;28;20140;-71
2021/07/31 10:54:59;;;;;;;7.47;2.40;;;;;;;31.01;32.20;100666.19;5096121;28;20074;-60
2021/07/31 10:57:54;;;;;;;6.93;1.83;;;;;;;30.39;32.07;100658.91;5090120;28;20048;-62
2021/07/31 11:00:24;;;;;;;5.30;2.22;;;;;;;30.30;31.75;100664.28;5085611;28;20131;-63
2021/07/31 11:03:03;;;;;;;4.05;2.20;;;;;;;30.63;31.95;100656.38;5085714;28;21010;-64
2021/07/31 11:05:54;;;;;;;5.30;2.58;;;;;;;30.90;32.10;100663.31;5082105;28;20044;-64
2021/07/31 11:08:22;;;;;;;16.52;4.22;;;;;;;30.81;32.73;100668.72;5086832;28;20143;-64
2021/07/31 11:11:00;;;;;;;7.23;2.23;;;;;;;30.75;32.58;100670.34;5085354;28;20068;-64
2021/07/31 11:13:36;;;;;;;5.55;2.10;;;;;;;31.06;32.07;100671.50;5086424;28;20415;-64
2021/07/31 11:16:03;;;;;;;4.95;2.33;;;;;;;31.00;32.02;100669.47;5087700;28;20130;-65
2021/07/31 11:18:32;;;;;;;7.80;2.92;;;;;;;30.68;32.91;100658.84;5086860;28;20501;-64
2021/07/31 11:21:09;;;;;;;7.70;3.00;;;;;;;30.57;33.04;100658.88;5085046;28;20040;-64
2021/07/31 11:23:48;;;;;;;6.55;2.85;;;;;;;30.79;32.44;100659.66;5083196;28;20495;-65
2021/07/31 11:26:38;;;;;;;5.10;2.45;;;;;;;30.64;33.87;100658.03;5086969;28;20076;-64
2021/07/31 11:29:26;;;;;;;3.55;2.13;;;;;;;31.23;32.89;100663.19;5086540;28;20058;-65
2021/07/31 11:31:58;;;;;;;9.20;2.35;;;;;;;31.60;32.52;100662.59;5082606;28;20435;-64